createdAt,value
2019-06-07T00:00:44.895Z,12.51
2019-06-07T00:03:24.853Z,12.46
2019-06-07T00:05:44.276Z,12.42
2019-06-07T00:08:22.576Z,12.46
2019-06-07T00:10:43.714Z,12.48
2019-06-07T00:13:15.218Z,12.38
2019-06-07T00:15:43.045Z,12.45
2019-06-07T00:18:16.699Z,12.46
2019-06-07T00:20:42.709Z,12.44
2019-06-07T00:23:14.760Z,12.44
2019-06-07T00:25:42.053Z,12.46
2019-06-07T00:28:10.795Z,12.47
2019-06-07T00:30:50.813Z,12.48
2019-06-07T00:33:15.203Z,12.47
2019-06-07T00:35:40.737Z,12.50
2019-06-07T00:38:09.475Z,12.52
2019-06-07T00:40:38.158Z,12.44
2019-06-07T00:43:06.897Z,12.33
2019-06-07T00:45:35.660Z,12.40
2019-06-07T00:48:04.496Z,12.46
2019-06-07T00:50:33.231Z,12.47
2019-06-07T00:53:28.625Z,12.45
2019-06-07T00:55:33.058Z,12.42
2019-06-07T00:58:02.561Z,12.42
2019-06-07T01:00:31.457Z,12.38
2019-06-07T01:03:00.143Z,12.35
2019-06-07T01:05:31.310Z,12.27
2019-06-07T01:07:59.321Z,12.25
2019-06-07T01:10:51.530Z,12.16
2019-06-07T01:12:58.693Z,12.12
2019-06-07T01:15:29.354Z,12.05
2019-06-07T01:18:33.746Z,11.90
2019-06-07T01:20:28.917Z,11.92
2019-06-07T01:22:57.844Z,11.94
2019-06-07T01:25:28.903Z,11.97
2019-06-07T01:27:57.203Z,12.03
2019-06-07T01:30:26.809Z,12.06
2019-06-07T01:32:55.897Z,12.05
2019-06-07T01:35:25.634Z,12.08
2019-06-07T01:37:54.720Z,12.11
2019-06-07T01:40:29.690Z,12.04
2019-06-07T01:42:54.187Z,12.07
2019-06-07T01:45:23.767Z,12.11
2019-06-07T01:47:54.610Z,12.10
2019-06-07T01:50:26.878Z,12.08
2019-06-07T01:52:53.710Z,11.96
2019-06-07T01:55:25.641Z,11.86
2019-06-07T01:57:52.874Z,11.80
2019-06-07T02:00:23.674Z,11.83
2019-06-07T02:02:52.314Z,11.67
2019-06-07T02:05:23.183Z,11.67
2019-06-07T02:07:51.791Z,11.75
2019-06-07T02:10:24.648Z,11.69
2019-06-07T02:12:51.135Z,11.58
2019-06-07T02:15:22.756Z,11.50
2019-06-07T02:17:51.182Z,11.54
2019-06-07T02:20:20.978Z,11.41
2019-06-07T02:22:50.923Z,11.41
2019-06-07T02:25:45.486Z,11.45
2019-06-07T02:27:50.448Z,11.38
2019-06-07T02:32:49.584Z,11.48
2019-06-07T02:35:18.463Z,11.39
2019-06-07T02:37:47.443Z,11.46
2019-06-07T02:40:16.613Z,11.36
2019-06-07T02:42:45.304Z,11.28
2019-06-07T02:45:14.876Z,11.35
2019-06-07T02:47:45.297Z,11.33
2019-06-07T02:50:15.905Z,11.28
2019-06-07T02:52:46.231Z,11.18
2019-06-07T02:55:15.369Z,11.22
2019-06-07T02:57:44.127Z,11.17
2019-06-07T03:00:41.493Z,11.09
2019-06-07T03:02:45.264Z,11.09
2019-06-07T03:05:14.170Z,11.09
2019-06-07T03:07:45.436Z,11.19
2019-06-07T03:10:14.499Z,11.17
2019-06-07T03:12:45.512Z,11.03
2019-06-07T03:15:32.030Z,11.09
2019-06-07T03:17:51.133Z,11.07
2019-06-07T03:20:20.865Z,11.00
2019-06-07T03:22:51.340Z,10.83
2019-06-07T03:25:20.044Z,10.92
2019-06-07T03:27:50.571Z,11.10
2019-06-07T03:30:46.595Z,11.20
2019-06-07T03:32:52.192Z,11.14
2019-06-07T03:35:21.103Z,11.16
2019-06-07T03:37:49.789Z,11.19
2019-06-07T03:40:18.479Z,11.18
2019-06-07T03:42:47.179Z,11.05
2019-06-07T03:45:16.244Z,11.17
2019-06-07T03:47:44.955Z,11.13
2019-06-07T03:50:13.695Z,11.16
2019-06-07T03:52:42.402Z,11.22
2019-06-07T03:55:11.161Z,11.12
2019-06-07T03:58:29.202Z,11.20
2019-06-07T04:00:10.921Z,11.14
2019-06-07T04:02:41.853Z,11.10
2019-06-07T04:05:10.490Z,11.07
2019-06-07T04:07:44.073Z,11.10
2019-06-07T04:10:10.292Z,11.18
2019-06-07T04:12:43.791Z,11.19
2019-06-07T04:15:09.979Z,11.25
2019-06-07T04:17:49.537Z,11.23
2019-06-07T04:20:09.409Z,11.22
2019-06-07T04:22:42.015Z,11.28
2019-06-07T04:25:10.040Z,11.26
2019-06-07T04:27:40.781Z,11.35
2019-06-07T04:30:10.227Z,11.41
2019-06-07T04:32:44.171Z,11.43
2019-06-07T04:35:11.855Z,11.47
2019-06-07T04:37:42.281Z,11.55
2019-06-07T04:40:11.404Z,11.61
2019-06-07T04:42:45.244Z,11.65
2019-06-07T04:45:33.118Z,11.71
2019-06-07T04:48:06.313Z,11.75
2019-06-07T04:50:38.280Z,11.78
2019-06-07T04:53:06.921Z,11.90
2019-06-07T04:55:38.616Z,11.92
2019-06-07T04:58:06.633Z,11.99
2019-06-07T05:00:56.525Z,12.05
2019-06-07T05:03:07.313Z,12.07
2019-06-07T05:05:39.796Z,12.07
2019-06-07T05:08:07.907Z,12.15
2019-06-07T05:10:38.788Z,12.11
2019-06-07T05:13:07.739Z,12.18
2019-06-07T05:15:38.975Z,12.17
2019-06-07T05:18:06.850Z,12.27
2019-06-07T05:20:37.571Z,12.32
2019-06-07T05:23:06.104Z,12.32
2019-06-07T05:25:36.461Z,12.37
2019-06-07T05:28:05.294Z,12.38
2019-06-07T05:33:09.736Z,12.52
2019-06-07T05:35:41.760Z,12.55
2019-06-07T05:38:10.002Z,12.56
2019-06-07T05:40:46.080Z,12.62
2019-06-07T05:43:22.683Z,12.71
2019-06-07T05:45:51.472Z,12.81
2019-06-07T05:48:20.169Z,12.91
2019-06-07T05:50:56.439Z,13.06
2019-06-07T05:53:19.435Z,13.11
2019-06-07T05:55:48.639Z,13.15
2019-06-07T05:58:16.970Z,13.18
2019-06-07T06:00:47.585Z,13.29
2019-06-07T06:03:16.242Z,13.32
2019-06-07T06:05:53.904Z,13.37
2019-06-07T06:08:15.659Z,13.42
2019-06-07T06:10:48.334Z,13.47
2019-06-07T06:13:14.870Z,13.53
2019-06-07T06:15:56.215Z,13.58
2019-06-07T06:18:14.433Z,13.88
2019-06-07T06:21:04.686Z,13.91
2019-06-07T06:23:13.778Z,13.97
2019-06-07T06:25:52.588Z,13.99
2019-06-07T06:28:15.989Z,13.96
2019-06-07T06:30:47.372Z,13.95
2019-06-07T06:33:30.426Z,13.58
2019-06-07T06:35:47.432Z,14.06
2019-06-07T06:38:15.230Z,14.09
2019-06-07T06:40:47.043Z,14.18
2019-06-07T06:43:14.659Z,14.20
2019-06-07T06:45:49.675Z,14.23
2019-06-07T06:48:14.090Z,14.38
2019-06-07T06:50:44.314Z,14.43
2019-06-07T06:53:13.525Z,14.62
2019-06-07T06:55:43.957Z,14.84
2019-06-07T06:58:12.618Z,14.77
2019-06-07T07:01:04.459Z,14.84
2019-06-07T07:03:56.143Z,15.04
2019-06-07T07:05:54.657Z,15.24
2019-06-07T07:08:22.985Z,15.25
2019-06-07T07:10:53.213Z,15.22
2019-06-07T07:13:22.376Z,15.34
2019-06-07T07:15:57.582Z,15.49
2019-06-07T07:18:21.868Z,15.57
2019-06-07T07:20:55.723Z,15.46
2019-06-07T07:23:21.670Z,15.60
2019-06-07T07:25:55.504Z,15.64
2019-06-07T07:28:21.105Z,15.95
2019-06-07T07:30:56.919Z,16.09
2019-06-07T07:33:25.871Z,15.90
2019-06-07T07:36:15.970Z,15.93
2019-06-07T07:38:28.014Z,15.99
2019-06-07T07:41:04.919Z,16.01
2019-06-07T07:43:26.367Z,15.98
2019-06-07T07:46:02.196Z,16.03
2019-06-07T07:48:27.943Z,16.15
2019-06-07T07:51:01.081Z,16.04
2019-06-07T07:53:45.333Z,16.16
2019-06-07T07:56:00.070Z,16.22
2019-06-07T07:58:28.240Z,16.33
2019-06-07T08:01:09.635Z,16.53
2019-06-07T08:03:27.836Z,16.40
2019-06-07T08:05:58.936Z,16.35
2019-06-07T08:08:26.914Z,16.45
2019-06-07T08:10:59.349Z,16.52
2019-06-07T08:13:27.919Z,16.63
2019-06-07T08:15:59.654Z,16.77
2019-06-07T08:18:27.194Z,16.98
2019-06-07T08:21:20.408Z,16.85
2019-06-07T08:23:26.847Z,16.67
2019-06-07T08:25:57.290Z,16.77
2019-06-07T08:28:27.454Z,16.76
2019-06-07T08:31:05.577Z,16.74
2019-06-07T08:33:27.262Z,16.76
2019-06-07T08:36:11.919Z,16.74
2019-06-07T08:38:43.518Z,16.60
2019-06-07T08:41:10.760Z,16.53
2019-06-07T08:43:30.571Z,16.55
2019-06-07T08:46:04.381Z,16.75
2019-06-07T08:48:30.372Z,16.83
2019-06-07T08:51:07.111Z,16.89
2019-06-07T08:53:30.193Z,16.97
2019-06-07T08:56:06.956Z,16.95
2019-06-07T08:58:29.527Z,16.85
2019-06-07T09:01:04.369Z,16.84
2019-06-07T09:03:28.853Z,16.79
2019-06-07T09:06:06.148Z,16.95
2019-06-07T09:08:30.690Z,17.02
2019-06-07T09:11:01.268Z,17.14
2019-06-07T09:13:29.538Z,17.16
2019-06-07T09:16:04.933Z,17.13
2019-06-07T09:18:42.148Z,17.14
2019-06-07T09:21:01.193Z,17.25
2019-06-07T09:23:30.478Z,17.19
2019-06-07T09:26:09.170Z,17.43
2019-06-07T09:28:30.139Z,17.54
2019-06-07T09:31:00.302Z,17.74
2019-06-07T09:33:29.263Z,17.95
2019-06-07T09:36:00.750Z,18.10
2019-06-07T09:38:28.878Z,18.27
2019-06-07T09:40:59.725Z,18.28
2019-06-07T09:44:00.840Z,18.28
2019-06-07T09:46:01.040Z,18.13
2019-06-07T09:51:05.871Z,18.20
2019-06-07T09:53:30.629Z,18.34
2019-06-07T09:56:03.563Z,18.40
2019-06-07T09:58:50.191Z,18.40
2019-06-07T10:01:05.896Z,18.67
2019-06-07T10:03:31.268Z,18.75
2019-06-07T10:06:05.411Z,18.76
2019-06-07T10:11:02.546Z,19.05
2019-06-07T10:13:31.473Z,19.09
2019-06-07T10:16:00.842Z,19.19
2019-06-07T10:18:29.907Z,19.21
2019-06-07T10:20:59.315Z,19.43
2019-06-07T10:23:28.175Z,19.38
2019-06-07T10:25:56.847Z,19.40
2019-06-07T10:28:25.780Z,19.30
2019-06-07T10:30:56.822Z,19.28
2019-06-07T10:33:25.493Z,19.21
2019-06-07T10:35:54.256Z,19.14
2019-06-07T10:38:22.926Z,19.20
2019-06-07T10:40:51.681Z,19.30
2019-06-07T10:43:22.721Z,19.56
2019-06-07T10:45:51.396Z,19.69
2019-06-07T10:48:20.396Z,19.95
2019-06-07T10:50:49.083Z,19.99
2019-06-07T10:53:17.764Z,19.93
2019-06-07T10:55:46.419Z,19.95
2019-06-07T10:58:15.175Z,20.13
2019-06-07T11:00:43.988Z,20.23
2019-06-07T11:03:14.264Z,20.45
2019-06-07T11:05:43.111Z,20.56
2019-06-07T11:08:13.233Z,20.51
2019-06-07T11:10:42.249Z,20.54
2019-06-07T11:13:12.515Z,20.50
2019-06-07T11:15:41.344Z,20.69
2019-06-07T11:18:10.343Z,20.78
2019-06-07T11:20:39.135Z,20.81
2019-06-07T11:23:08.258Z,20.91
2019-06-07T11:25:36.892Z,21.00
2019-06-07T11:28:06.347Z,21.01
2019-06-07T11:30:35.254Z,21.05
2019-06-07T11:33:04.239Z,21.20
2019-06-07T11:35:32.980Z,21.29
2019-06-07T11:38:02.166Z,21.40
2019-06-07T11:40:35.653Z,21.43
2019-06-07T11:43:01.324Z,21.50
2019-06-07T11:45:29.992Z,21.72
2019-06-07T11:47:59.927Z,21.83
2019-06-07T11:50:29.057Z,21.81
2019-06-07T11:52:57.879Z,21.90
2019-06-07T11:55:26.708Z,21.90
2019-06-07T11:57:55.469Z,21.97
2019-06-07T12:00:24.386Z,22.12
2019-06-07T12:02:53.972Z,22.10
2019-06-07T12:05:22.671Z,22.22
2019-06-07T12:07:51.407Z,22.22
2019-06-07T12:10:22.984Z,22.19
2019-06-07T12:12:51.233Z,22.24
2019-06-07T12:15:20.078Z,22.30
2019-06-07T12:17:49.086Z,22.37
2019-06-07T12:20:19.551Z,22.42
2019-06-07T12:22:48.890Z,22.48
2019-06-07T12:25:22.556Z,22.62
2019-06-07T12:27:48.118Z,22.61
2019-06-07T12:30:24.317Z,22.44
2019-06-07T12:32:47.810Z,22.48
2019-06-07T12:35:18.072Z,22.59
2019-06-07T12:37:52.865Z,22.59
2019-06-07T12:40:30.259Z,22.74
2019-06-07T12:42:53.148Z,22.85
2019-06-07T12:45:43.761Z,22.89
2019-06-07T12:47:53.093Z,23.04
2019-06-07T12:50:25.289Z,22.91
2019-06-07T12:52:53.148Z,23.18
2019-06-07T12:55:22.679Z,23.32
2019-06-07T12:57:52.620Z,23.45
2019-06-07T13:00:22.329Z,23.66
2019-06-07T13:02:51.516Z,23.71
2019-06-07T13:05:21.638Z,23.72
2019-06-07T13:07:50.529Z,23.41
2019-06-07T13:10:22.059Z,23.04
2019-06-07T13:12:52.000Z,22.89
2019-06-07T13:15:23.844Z,22.69
2019-06-07T13:17:51.261Z,22.61
2019-06-07T13:20:20.497Z,22.56
2019-06-07T13:22:49.532Z,22.52
2019-06-07T13:25:21.200Z,22.54
2019-06-07T13:27:50.517Z,22.75
2019-06-07T13:30:20.980Z,22.80
2019-06-07T13:32:50.013Z,22.88
2019-06-07T13:35:21.605Z,23.02
2019-06-07T13:37:49.792Z,23.11
2019-06-07T13:40:19.665Z,23.25
2019-06-07T13:42:49.355Z,23.29
2019-06-07T13:45:20.162Z,23.38
2019-06-07T13:47:48.877Z,23.48
2019-06-07T13:50:17.780Z,23.51
2019-06-07T13:52:47.164Z,23.46
2019-06-07T13:55:19.815Z,23.54
2019-06-07T13:57:48.732Z,23.64
2019-06-07T14:00:18.940Z,23.65
2019-06-07T14:02:48.276Z,23.77
2019-06-07T14:05:18.946Z,23.74
2019-06-07T14:07:47.630Z,23.91
2019-06-07T14:10:16.475Z,23.94
2019-06-07T14:12:57.622Z,23.97
2019-06-07T14:15:26.592Z,23.91
2019-06-07T14:17:57.356Z,23.86
2019-06-07T14:20:30.963Z,23.96
2019-06-07T14:22:56.463Z,23.95
2019-06-07T14:25:25.477Z,24.08
2019-06-07T14:27:54.151Z,24.17
2019-06-07T14:30:23.939Z,24.13
2019-06-07T14:32:52.834Z,24.09
2019-06-07T14:35:22.541Z,24.00
2019-06-07T14:37:51.338Z,24.03
2019-06-07T14:40:20.286Z,23.92
2019-06-07T14:42:49.223Z,23.93
2019-06-07T14:45:18.238Z,24.12
2019-06-07T14:47:46.902Z,24.11
2019-06-07T14:50:16.126Z,24.21
2019-06-07T14:52:45.352Z,24.26
2019-06-07T14:55:14.322Z,24.27
2019-06-07T14:57:42.994Z,24.09
2019-06-07T15:00:12.376Z,23.76
2019-06-07T15:02:43.437Z,23.88
2019-06-07T15:05:12.313Z,23.97
2019-06-07T15:07:41.247Z,23.87
2019-06-07T15:10:10.268Z,23.53
2019-06-07T15:12:39.934Z,23.30
2019-06-07T15:15:10.004Z,23.17
2019-06-07T15:17:39.354Z,23.03
2019-06-07T15:20:09.598Z,23.09
2019-06-07T15:22:39.077Z,23.33
2019-06-07T15:25:09.052Z,23.70
2019-06-07T15:27:37.959Z,23.62
2019-06-07T15:30:10.393Z,23.87
2019-06-07T15:32:39.507Z,23.81
2019-06-07T15:35:09.368Z,23.80
2019-06-07T15:37:39.203Z,23.87
2019-06-07T15:40:10.360Z,23.80
2019-06-07T15:42:51.327Z,23.81
2019-06-07T15:45:10.867Z,23.79
2019-06-07T15:47:40.574Z,23.84
2019-06-07T15:50:10.518Z,23.86
2019-06-07T15:52:42.523Z,23.91
2019-06-07T15:55:11.333Z,23.87
2019-06-07T15:57:41.897Z,23.86
2019-06-07T16:00:11.856Z,23.69
2019-06-07T16:02:41.788Z,23.63
2019-06-07T16:05:11.377Z,23.61
2019-06-07T16:07:40.632Z,23.68
2019-06-07T16:10:10.200Z,23.64
2019-06-07T16:12:38.960Z,23.65
2019-06-07T16:15:08.051Z,23.40
2019-06-07T16:17:37.278Z,23.33
2019-06-07T16:20:07.008Z,23.41
2019-06-07T16:22:35.914Z,23.28
2019-06-07T16:25:05.119Z,23.21
2019-06-07T16:27:34.384Z,23.33
2019-06-07T16:30:09.007Z,23.21
2019-06-07T16:32:37.470Z,22.89
2019-06-07T16:35:06.790Z,22.70
2019-06-07T16:37:36.249Z,22.59
2019-06-07T16:40:05.670Z,22.33
2019-06-07T16:42:34.390Z,22.13
2019-06-07T16:45:03.505Z,22.21
2019-06-07T16:47:32.191Z,22.03
2019-06-07T16:50:00.918Z,21.96
2019-06-07T16:52:29.603Z,21.91
2019-06-07T16:54:58.530Z,21.89
2019-06-07T16:57:27.209Z,21.95
2019-06-07T16:59:56.121Z,22.04
2019-06-07T17:02:24.800Z,22.11
2019-06-07T17:04:53.468Z,22.06
2019-06-07T17:07:22.156Z,22.05
2019-06-07T17:09:50.825Z,22.08
2019-06-07T17:12:19.609Z,22.13
2019-06-07T17:14:48.746Z,22.14
2019-06-07T17:17:17.581Z,22.04
2019-06-07T17:19:47.085Z,22.03
2019-06-07T17:22:15.926Z,22.10
2019-06-07T17:24:45.520Z,22.03
2019-06-07T17:27:14.293Z,21.98
2019-06-07T17:29:43.682Z,21.99
2019-06-07T17:32:16.091Z,22.01
2019-06-07T17:34:46.098Z,22.02
2019-06-07T17:37:15.234Z,21.97
2019-06-07T17:39:44.971Z,22.03
2019-06-07T17:42:14.100Z,21.97
2019-06-07T17:44:42.967Z,21.91
2019-06-07T17:47:11.635Z,21.99
2019-06-07T17:49:41.627Z,21.93
2019-06-07T17:52:10.460Z,21.87
2019-06-07T17:54:39.160Z,21.86
2019-06-07T17:57:07.830Z,21.68
2019-06-07T17:59:36.747Z,21.64
2019-06-07T18:02:14.804Z,21.53
2019-06-07T18:04:36.453Z,21.47
2019-06-07T18:07:05.352Z,21.42
2019-06-07T18:09:36.753Z,21.33
2019-06-07T18:12:05.676Z,21.20
2019-06-07T18:14:34.497Z,21.20
2019-06-07T18:17:03.171Z,21.12
2019-06-07T18:19:32.099Z,21.16
2019-06-07T18:22:01.030Z,21.16
2019-06-07T18:24:29.796Z,21.08
2019-06-07T18:26:59.049Z,21.02
2019-06-07T18:29:28.323Z,20.92
2019-06-07T18:31:57.001Z,20.83
2019-06-07T18:34:25.706Z,20.86
2019-06-07T18:36:55.162Z,20.85
2019-06-07T18:39:23.982Z,20.77
2019-06-07T18:41:53.349Z,20.77
2019-06-07T18:44:22.372Z,20.75
2019-06-07T18:46:52.170Z,20.72
2019-06-07T18:49:20.995Z,20.71
2019-06-07T18:52:08.995Z,20.66
2019-06-07T18:54:38.260Z,20.70
2019-06-07T18:57:07.230Z,20.70
2019-06-07T18:59:36.318Z,20.64
2019-06-07T19:02:05.168Z,19.85
2019-06-07T19:04:33.913Z,19.41
2019-06-07T19:07:02.589Z,19.00
2019-06-07T19:09:31.266Z,18.66
2019-06-07T19:12:00.195Z,18.31
2019-06-07T19:14:37.072Z,18.03
2019-06-07T19:16:59.921Z,17.34
2019-06-07T19:19:32.024Z,16.85
2019-06-07T19:22:00.778Z,16.46
2019-06-07T19:24:29.444Z,16.12
2019-06-07T19:26:58.704Z,15.91
2019-06-07T19:29:27.444Z,15.80
2019-06-07T19:31:57.005Z,15.54
2019-06-07T19:34:26.069Z,15.50
2019-06-07T19:36:55.651Z,15.27
2019-06-07T19:39:24.505Z,15.07
2019-06-07T19:41:54.008Z,14.81
2019-06-07T19:44:22.741Z,14.58
2019-06-07T19:46:52.256Z,14.44
2019-06-07T19:49:20.960Z,14.30
2019-06-07T19:51:50.122Z,14.24
2019-06-07T19:54:18.794Z,14.10
2019-06-07T19:56:47.467Z,14.02
2019-06-07T19:59:18.590Z,13.96
2019-06-07T20:01:50.428Z,13.93
2019-06-07T20:04:18.342Z,13.93
2019-06-07T20:06:47.311Z,13.84
2019-06-07T20:09:16.000Z,13.88
2019-06-07T20:11:44.675Z,13.82
2019-06-07T20:14:13.757Z,13.77
2019-06-07T20:16:42.447Z,13.68
2019-06-07T20:19:11.647Z,13.67
2019-06-07T20:21:40.583Z,13.67
2019-06-07T20:24:24.794Z,13.62
2019-06-07T20:26:39.888Z,13.52
2019-06-07T20:29:24.957Z,13.52
2019-06-07T20:31:39.176Z,13.52
2019-06-07T20:34:09.081Z,13.50
2019-06-07T20:36:37.900Z,13.54
2019-06-07T20:39:08.325Z,13.55
2019-06-07T20:41:37.168Z,13.56
2019-06-07T20:44:05.977Z,13.61
2019-06-07T20:46:35.046Z,13.61
2019-06-07T20:49:04.858Z,13.64
2019-06-07T20:51:34.413Z,13.62
2019-06-07T20:54:05.508Z,13.63
2019-06-07T20:56:34.249Z,13.65
2019-06-07T20:59:03.020Z,13.63
2019-06-07T21:01:31.715Z,13.58
2019-06-07T21:04:01.100Z,13.54
2019-06-07T21:06:30.134Z,13.52
2019-06-07T21:08:59.367Z,13.56
2019-06-07T21:11:28.027Z,13.55
2019-06-07T21:13:56.704Z,13.58
2019-06-07T21:16:26.613Z,13.79
2019-06-07T21:18:55.353Z,13.87
2019-06-07T21:21:24.033Z,13.79
2019-06-07T21:23:52.708Z,13.91
2019-06-07T21:26:21.393Z,13.89
2019-06-07T21:28:50.368Z,13.83
2019-06-07T21:31:19.046Z,13.86
2019-06-07T21:33:47.720Z,13.90
2019-06-07T21:36:16.408Z,13.78
2019-06-07T21:38:45.331Z,13.76
2019-06-07T21:41:14.247Z,13.70
2019-06-07T21:43:42.910Z,13.67
2019-06-07T21:46:19.596Z,13.73
2019-06-07T21:48:42.019Z,13.79
2019-06-07T21:51:11.042Z,13.83
2019-06-07T21:53:39.717Z,13.91
2019-06-07T21:56:09.105Z,13.84
2019-06-07T21:58:37.948Z,13.82
2019-06-07T22:01:17.543Z,13.85
2019-06-07T22:03:46.538Z,13.78
2019-06-07T22:06:15.802Z,13.70
2019-06-07T22:08:45.020Z,13.70
2019-06-07T22:11:14.221Z,13.64
2019-06-07T22:13:43.315Z,13.58
2019-06-07T22:16:26.157Z,13.55
2019-06-07T22:18:42.647Z,13.53
2019-06-07T22:21:12.695Z,13.49
2019-06-07T22:23:43.996Z,13.45
2019-06-07T22:26:13.243Z,13.39
2019-06-07T22:28:42.809Z,13.37
2019-06-07T22:31:12.832Z,13.35
2019-06-07T22:33:41.924Z,13.36
2019-06-07T22:36:11.374Z,13.34
2019-06-07T22:38:42.218Z,13.33
2019-06-07T22:41:12.317Z,13.38
2019-06-07T22:43:41.582Z,13.35
2019-06-07T22:46:10.891Z,13.30
2019-06-07T22:48:41.724Z,13.39
2019-06-07T22:51:12.659Z,13.32
2019-06-07T22:53:42.497Z,13.26
2019-06-07T22:56:21.123Z,13.28
2019-06-07T22:58:49.800Z,13.30
2019-06-07T23:01:20.241Z,13.35
2019-06-07T23:03:49.012Z,13.28
2019-06-07T23:06:18.675Z,13.21
2019-06-07T23:08:47.918Z,13.24
2019-06-07T23:11:19.401Z,13.25
2019-06-07T23:13:48.473Z,13.19
2019-06-07T23:16:17.769Z,13.20
2019-06-07T23:18:46.992Z,13.21
2019-06-07T23:21:15.984Z,13.34
2019-06-07T23:23:44.619Z,13.28
2019-06-07T23:26:14.145Z,13.32
2019-06-07T23:28:42.948Z,13.38
2019-06-07T23:31:12.485Z,13.23
2019-06-07T23:33:41.503Z,13.15
2019-06-07T23:36:10.973Z,13.14
2019-06-07T23:38:39.700Z,13.25
2019-06-07T23:41:08.648Z,13.12
2019-06-07T23:43:37.330Z,13.09
2019-06-07T23:46:06.025Z,13.08
2019-06-07T23:48:35.286Z,13.07
2019-06-07T23:51:04.315Z,13.13
2019-06-07T23:53:33.044Z,13.08
2019-06-07T23:56:01.969Z,13.06
2019-06-07T23:58:31.014Z,12.98
